Time;durP1;ratioP1;P1;durP2;ratioP2;P2;SDS_P1;SDS_P2;PMS_P1;PMS_P2;Temp;Humidity;BMP_temperature;BMP_pressure;BME280_temperature;BME280_humidity;BME280_pressure;Samples;Min_cycle;Max_cycle;Signal;HPM_P1;HPM_P2
2023/10/23 00:01:16;;;;;;;;;;;20.10;68.70;;;;;;5025148;28;1339;-72
2023/10/23 00:03:42;;;;;;;;;;;20.10;68.70;;;;;;5022442;28;1464;-73
2023/10/23 00:06:07;;;;;;;;;;;20.10;68.70;;;;;;5022022;28;1304;-72
2023/10/23 00:08:33;;;;;;;;;;;20.10;68.70;;;;;;5025472;28;1305;-73
2023/10/23 00:10:58;;;;;;;;;;;20.00;68.70;;;;;;5021735;28;1451;-73
2023/10/23 00:13:24;;;;;;;;;;;20.10;68.70;;;;;;5022354;28;1628;-72
2023/10/23 00:15:49;;;;;;;;;;;20.00;68.70;;;;;;5022245;28;1906;-72
2023/10/23 00:18:15;;;;;;;;;;;20.00;68.70;;;;;;5023924;28;1353;-73
2023/10/23 00:20:40;;;;;;;;;;;20.10;68.80;;;;;;5024387;28;1129;-73
2023/10/23 00:23:06;;;;;;;;;;;20.00;68.70;;;;;;5020462;28;1517;-72
2023/10/23 00:25:31;;;;;;;;;;;20.00;68.80;;;;;;5023813;28;1371;-73
2023/10/23 00:27:57;;;;;;;;;;;20.00;68.80;;;;;;5026824;28;1271;-73
2023/10/23 00:30:22;;;;;;;;;;;20.00;68.80;;;;;;5025506;28;1450;-73
2023/10/23 00:32:48;;;;;;;;;;;20.00;68.80;;;;;;5023266;28;1409;-73
2023/10/23 00:35:13;;;;;;;;;;;20.00;68.80;;;;;;5019121;28;1967;-72
2023/10/23 00:37:39;;;;;;;;;;;20.00;68.90;;;;;;5024909;28;1255;-73
2023/10/23 00:40:05;;;;;;;;;;;20.00;68.80;;;;;;5022783;28;1238;-73
2023/10/23 00:42:31;;;;;;;;;;;20.00;68.90;;;;;;5020937;28;1351;-73
2023/10/23 00:44:57;;;;;;;;;;;20.00;68.90;;;;;;5023017;28;1282;-73
2023/10/23 00:47:22;;;;;;;;;;;20.00;68.90;;;;;;5023534;28;1410;-73
2023/10/23 00:49:48;;;;;;;;;;;20.00;68.90;;;;;;5021651;28;915;-72
2023/10/23 00:52:13;;;;;;;;;;;20.00;69.00;;;;;;5021378;28;1126;-72
2023/10/23 00:54:39;;;;;;;;;;;20.00;68.90;;;;;;5021185;28;1337;-73
2023/10/23 00:57:04;;;;;;;;;;;20.00;69.00;;;;;;5019917;28;1963;-72
2023/10/23 00:59:30;;;;;;;;;;;20.00;69.00;;;;;;5020092;28;1538;-73
2023/10/23 01:01:56;;;;;;;;;;;20.00;69.00;;;;;;5023565;28;1641;-72
2023/10/23 01:04:21;;;;;;;;;;;20.00;69.00;;;;;;5027302;28;1266;-72
2023/10/23 01:06:47;;;;;;;;;;;20.00;69.00;;;;;;5019530;28;1482;-72
2023/10/23 01:09:12;;;;;;;;;;;20.00;69.00;;;;;;5023987;28;1259;-72
2023/10/23 01:11:38;;;;;;;;;;;20.00;69.00;;;;;;5022567;28;1138;-73
2023/10/23 01:14:03;;;;;;;;;;;20.00;69.10;;;;;;5023184;28;1930;-73
2023/10/23 01:16:29;;;;;;;;;;;20.00;69.10;;;;;;5024245;28;1902;-73
2023/10/23 01:18:54;;;;;;;;;;;20.00;69.10;;;;;;5022799;28;1394;-73
2023/10/23 01:21:20;;;;;;;;;;;20.00;69.10;;;;;;5025259;28;1185;-73
2023/10/23 01:23:46;;;;;;;;;;;20.00;69.10;;;;;;5022218;28;1098;-73
2023/10/23 01:26:11;;;;;;;;;;;20.00;69.10;;;;;;5021059;28;1403;-72
2023/10/23 01:28:37;;;;;;;;;;;20.00;69.10;;;;;;5023223;28;1251;-73
2023/10/23 01:31:02;;;;;;;;;;;20.00;69.10;;;;;;5020189;28;1285;-72
2023/10/23 01:33:28;;;;;;;;;;;20.00;69.10;;;;;;5021518;28;1515;-72
2023/10/23 01:35:53;;;;;;;;;;;20.00;69.20;;;;;;5020084;28;1997;-72
2023/10/23 01:38:19;;;;;;;;;;;20.00;69.20;;;;;;5018655;28;1364;-71
2023/10/23 01:40:44;;;;;;;;;;;20.00;69.20;;;;;;5021894;28;1415;-71
2023/10/23 01:43:10;;;;;;;;;;;20.00;69.90;;;;;;5021451;28;1241;-72
2023/10/23 01:45:35;;;;;;;;;;;19.90;69.10;;;;;;5022974;28;1562;-72
2023/10/23 01:48:01;;;;;;;;;;;20.00;69.20;;;;;;5020505;28;1657;-72
2023/10/23 01:50:26;;;;;;;;;;;20.00;69.30;;;;;;5020397;28;1248;-72
2023/10/23 01:52:52;;;;;;;;;;;20.00;69.30;;;;;;5021484;28;1741;-73
2023/10/23 01:55:17;;;;;;;;;;;20.00;69.20;;;;;;5018094;28;1890;-73
2023/10/23 01:57:42;;;;;;;;;;;20.00;69.20;;;;;;5020501;28;1050;-73
2023/10/23 02:00:10;;;;;;;;;;;20.00;69.30;;;;;;5022376;28;1275;-73
2023/10/23 02:02:36;;;;;;;;;;;19.90;69.20;;;;;;5020366;28;907;-73
2023/10/23 02:05:01;;;;;;;;;;;20.00;69.30;;;;;;5022147;28;1258;-73
2023/10/23 02:07:27;;;;;;;;;;;20.00;69.40;;;;;;5021608;28;1378;-73
2023/10/23 02:09:53;;;;;;;;;;;20.00;69.40;;;;;;5024156;28;986;-73
2023/10/23 02:12:18;;;;;;;;;;;20.00;69.40;;;;;;5021735;28;1040;-73
2023/10/23 02:14:44;;;;;;;;;;;20.00;69.40;;;;;;5024103;28;1430;-73
2023/10/23 02:17:09;;;;;;;;;;;20.00;69.40;;;;;;5022096;28;1961;-73
2023/10/23 02:19:35;;;;;;;;;;;20.00;69.40;;;;;;5021790;28;1347;-73
2023/10/23 02:22:00;;;;;;;;;;;20.00;69.40;;;;;;5022538;28;1767;-73
2023/10/23 02:24:26;;;;;;;;;;;20.00;69.40;;;;;;5019984;28;1429;-73
2023/10/23 02:26:51;;;;;;;;;;;20.00;69.40;;;;;;5020346;28;1276;-73
2023/10/23 02:29:17;;;;;;;;;;;19.90;69.40;;;;;;5022054;28;1290;-73
2023/10/23 02:31:42;;;;;;;;;;;20.00;69.40;;;;;;5022749;28;1234;-73
2023/10/23 02:34:08;;;;;;;;;;;19.90;69.40;;;;;;5019547;28;1612;-73
2023/10/23 02:36:33;;;;;;;;;;;19.90;70.20;;;;;;5004820;28;1898;-73
2023/10/23 02:38:59;;;;;;;;;;;20.00;69.50;;;;;;5019777;28;1731;-74
2023/10/23 02:41:25;;;;;;;;;;;19.90;69.40;;;;;;5021576;28;874;-73
2023/10/23 02:43:50;;;;;;;;;;;19.90;69.50;;;;;;5018829;28;1429;-74
2023/10/23 02:46:16;;;;;;;;;;;19.90;69.40;;;;;;5018777;28;1362;-73
2023/10/23 02:48:41;;;;;;;;;;;20.00;69.50;;;;;;5020464;28;1140;-73
2023/10/23 02:51:07;;;;;;;;;;;19.90;69.40;;;;;;5018187;28;1391;-73
2023/10/23 02:53:32;;;;;;;;;;;19.90;69.50;;;;;;5022452;28;1672;-73
2023/10/23 02:55:58;;;;;;;;;;;19.90;69.40;;;;;;5018152;28;1906;-73
2023/10/23 02:58:23;;;;;;;;;;;19.90;69.50;;;;;;5020380;28;1344;-73
2023/10/23 03:00:49;;;;;;;;;;;19.90;69.50;;;;;;5019996;28;1364;-74
2023/10/23 03:03:14;;;;;;;;;;;19.90;69.50;;;;;;5021808;28;1160;-73
2023/10/23 03:05:40;;;;;;;;;;;19.90;69.50;;;;;;5019645;28;1403;-73
2023/10/23 03:08:05;;;;;;;;;;;19.90;69.50;;;;;;5018164;28;1118;-73
2023/10/23 03:10:31;;;;;;;;;;;19.90;69.50;;;;;;5028480;28;1548;-73
2023/10/23 03:12:56;;;;;;;;;;;19.90;69.50;;;;;;5018778;28;1315;-73
2023/10/23 03:15:22;;;;;;;;;;;19.90;69.50;;;;;;5020463;28;1957;-73
2023/10/23 03:17:47;;;;;;;;;;;19.90;69.60;;;;;;5021331;28;1336;-73
2023/10/23 03:20:13;;;;;;;;;;;19.90;69.60;;;;;;5019422;28;1278;-73
2023/10/23 03:22:38;;;;;;;;;;;19.90;69.50;;;;;;5016388;28;1328;-73
2023/10/23 03:25:07;;;;;;;;;;;19.90;69.60;;;;;;5017012;28;1479;-73
2023/10/23 03:27:32;;;;;;;;;;;19.90;69.60;;;;;;5020040;28;1214;-73
2023/10/23 03:29:58;;;;;;;;;;;19.90;69.60;;;;;;5019069;28;1731;-73
2023/10/23 03:32:23;;;;;;;;;;;19.90;69.60;;;;;;5018979;28;1344;-73
2023/10/23 03:34:49;;;;;;;;;;;19.90;69.60;;;;;;5018928;28;1347;-73
2023/10/23 03:37:15;;;;;;;;;;;19.90;69.60;;;;;;5017214;28;1367;-73
2023/10/23 03:39:40;;;;;;;;;;;19.90;69.60;;;;;;5018566;28;1369;-73
2023/10/23 03:42:06;;;;;;;;;;;19.90;69.60;;;;;;5020221;28;1302;-73
2023/10/23 03:44:31;;;;;;;;;;;19.90;69.60;;;;;;5020185;28;1268;-73
2023/10/23 03:46:57;;;;;;;;;;;19.90;69.60;;;;;;5017911;28;1726;-73
2023/10/23 03:49:22;;;;;;;;;;;19.90;69.60;;;;;;5020700;28;1105;-73
2023/10/23 03:51:48;;;;;;;;;;;19.90;69.60;;;;;;5018599;28;1239;-73
2023/10/23 03:54:13;;;;;;;;;;;19.90;69.60;;;;;;5021297;28;1215;-74
2023/10/23 03:56:39;;;;;;;;;;;19.90;69.60;;;;;;5021971;28;1907;-73
2023/10/23 03:59:04;;;;;;;;;;;19.90;69.70;;;;;;5023175;28;1339;-72
2023/10/23 04:01:30;;;;;;;;;;;19.90;69.70;;;;;;5023168;28;1329;-72
2023/10/23 04:03:55;;;;;;;;;;;19.90;69.70;;;;;;5020790;28;1318;-72
2023/10/23 04:06:21;;;;;;;;;;;19.90;69.70;;;;;;5020775;28;1371;-72
2023/10/23 04:08:46;;;;;;;;;;;19.90;69.70;;;;;;5014574;28;1190;-73
2023/10/23 04:11:12;;;;;;;;;;;19.90;69.70;;;;;;5023643;28;1321;-73
2023/10/23 04:13:38;;;;;;;;;;;19.90;69.70;;;;;;5020468;28;1535;-73
2023/10/23 04:16:03;;;;;;;;;;;19.90;69.60;;;;;;5021611;28;1977;-73
2023/10/23 04:18:29;;;;;;;;;;;19.90;69.60;;;;;;5023493;28;1294;-73
2023/10/23 04:21:21;;;;;;;;;;;19.90;69.60;;;;;;5024467;28;1588;-73
2023/10/23 04:23:46;;;;;;;;;;;20.00;69.50;;;;;;5016857;28;1267;-73
2023/10/23 04:26:14;;;;;;;;;;;19.90;69.40;;;;;;5021600;28;1328;-73
2023/10/23 04:28:40;;;;;;;;;;;20.00;69.30;;;;;;5022836;28;1278;-75
2023/10/23 04:31:05;;;;;;;;;;;20.00;69.20;;;;;;5023235;28;1192;-73
2023/10/23 04:33:31;;;;;;;;;;;20.00;69.10;;;;;;5021411;28;1346;-73
2023/10/23 04:35:57;;;;;;;;;;;20.10;69.10;;;;;;5019668;28;1910;-73
2023/10/23 04:38:22;;;;;;;;;;;20.10;69.00;;;;;;5022748;28;1161;-73
2023/10/23 04:40:50;;;;;;;;;;;20.10;68.90;;;;;;5021347;28;1035;-74
2023/10/23 04:43:15;;;;;;;;;;;20.10;68.70;;;;;;5020631;28;1463;-73
2023/10/23 04:45:41;;;;;;;;;;;20.20;68.70;;;;;;5023014;28;1295;-74
2023/10/23 04:48:06;;;;;;;;;;;20.30;68.70;;;;;;5022569;28;1206;-73
2023/10/23 04:50:32;;;;;;;;;;;20.30;68.50;;;;;;5019710;28;1344;-74
2023/10/23 04:52:59;;;;;;;;;;;20.40;68.40;;;;;;5021126;28;1248;-73
2023/10/23 04:55:31;;;;;;;;;;;20.50;68.30;;;;;;5020852;28;1903;-74
2023/10/23 04:57:56;;;;;;;;;;;20.60;68.20;;;;;;5021659;28;1243;-74
2023/10/23 05:00:22;;;;;;;;;;;20.70;68.00;;;;;;5023237;28;1317;-74
2023/10/23 05:02:47;;;;;;;;;;;20.70;67.70;;;;;;5024947;28;1231;-74
2023/10/23 05:05:13;;;;;;;;;;;20.80;67.50;;;;;;5019759;28;1529;-74
2023/10/23 05:07:38;;;;;;;;;;;20.90;67.20;;;;;;5019708;28;1202;-73
2023/10/23 05:10:07;;;;;;;;;;;21.00;67.00;;;;;;5022074;28;1626;-73
2023/10/23 05:12:33;;;;;;;;;;;21.00;66.70;;;;;;5022999;28;934;-73
2023/10/23 05:14:58;;;;;;;;;;;21.10;66.60;;;;;;5024012;28;1902;-73
2023/10/23 05:17:24;;;;;;;;;;;21.10;66.30;;;;;;5025904;28;1226;-73
2023/10/23 05:19:49;;;;;;;;;;;21.20;66.20;;;;;;5023358;28;1635;-74
2023/10/23 05:22:15;;;;;;;;;;;21.20;66.00;;;;;;5022524;28;1364;-74
2023/10/23 05:24:44;;;;;;;;;;;21.20;65.80;;;;;;5011059;28;1217;-73
2023/10/23 05:27:09;;;;;;;;;;;21.30;65.80;;;;;;5020748;28;1907;-74
2023/10/23 05:29:35;;;;;;;;;;;21.30;65.60;;;;;;5007438;28;1197;-77
2023/10/23 05:32:00;;;;;;;;;;;21.30;65.50;;;;;;5020603;28;1435;-71
2023/10/23 05:34:26;;;;;;;;;;;21.30;65.50;;;;;;5018812;28;1378;-72
2023/10/23 05:36:51;;;;;;;;;;;21.30;65.50;;;;;;5020006;28;1910;-73
2023/10/23 05:39:16;;;;;;;;;;;21.30;65.40;;;;;;5018043;28;1154;-72
2023/10/23 05:41:42;;;;;;;;;;;21.30;65.30;;;;;;5021377;28;1585;-73
2023/10/23 05:44:07;;;;;;;;;;;21.30;65.30;;;;;;5020307;28;1152;-73
2023/10/23 05:46:33;;;;;;;;;;;21.30;65.30;;;;;;5018141;28;1296;-73
2023/10/23 05:48:59;;;;;;;;;;;21.30;65.20;;;;;;5021414;28;1694;-72
2023/10/23 05:51:25;;;;;;;;;;;21.30;65.20;;;;;;5018768;28;1518;-71
2023/10/23 05:53:50;;;;;;;;;;;21.30;65.20;;;;;;5017500;28;1366;-75
2023/10/23 05:56:16;;;;;;;;;;;21.30;65.20;;;;;;5021344;28;1906;-75
2023/10/23 05:58:41;;;;;;;;;;;21.30;65.50;;;;;;5017970;28;1230;-75
2023/10/23 06:01:07;;;;;;;;;;;21.30;65.40;;;;;;5021136;28;1345;-72
2023/10/23 06:03:33;;;;;;;;;;;21.30;65.40;;;;;;5021707;28;1268;-73
2023/10/23 06:05:59;;;;;;;;;;;21.30;65.30;;;;;;5018831;28;1503;-74
2023/10/23 06:08:24;;;;;;;;;;;21.30;65.40;;;;;;5021751;28;1254;-73
2023/10/23 06:10:50;;;;;;;;;;;21.30;65.40;;;;;;5018014;28;1420;-75
2023/10/23 06:13:15;;;;;;;;;;;21.40;65.50;;;;;;5023076;28;848;-75
2023/10/23 06:15:41;;;;;;;;;;;21.30;65.40;;;;;;5022654;28;1910;-75
2023/10/23 06:18:06;;;;;;;;;;;21.30;65.50;;;;;;5024698;28;931;-76
2023/10/23 06:20:32;;;;;;;;;;;21.30;65.40;;;;;;5020962;28;1203;-75
2023/10/23 06:23:00;;;;;;;;;;;21.30;65.50;;;;;;5017290;28;1454;-75
2023/10/23 06:25:26;;;;;;;;;;;21.30;65.50;;;;;;5017329;28;1272;-75
2023/10/23 06:27:52;;;;;;;;;;;21.30;65.50;;;;;;5022483;28;788;-75
2023/10/23 06:30:17;;;;;;;;;;;21.30;65.50;;;;;;5003874;28;1137;-75
2023/10/23 06:32:43;;;;;;;;;;;21.30;65.50;;;;;;5017143;28;1180;-76
2023/10/23 06:35:08;;;;;;;;;;;21.30;65.60;;;;;;5021922;28;1965;-77
2023/10/23 06:37:34;;;;;;;;;;;21.30;65.60;;;;;;5022661;28;972;-75
2023/10/23 06:39:59;;;;;;;;;;;21.20;65.60;;;;;;5023366;28;1110;-76
2023/10/23 06:42:25;;;;;;;;;;;21.20;65.60;;;;;;5019561;28;1296;-75
2023/10/23 06:44:51;;;;;;;;;;;21.20;65.70;;;;;;5023303;28;1169;-75
2023/10/23 06:47:16;;;;;;;;;;;21.20;65.80;;;;;;5020909;28;1313;-75
2023/10/23 06:49:45;;;;;;;;;;;21.20;65.90;;;;;;5018258;28;1130;-76
2023/10/23 06:52:11;;;;;;;;;;;21.20;65.90;;;;;;5020906;28;869;-75
2023/10/23 06:54:36;;;;;;;;;;;21.10;66.00;;;;;;5035851;28;1284;-76
2023/10/23 06:57:10;;;;;;;;;;;21.10;66.00;;;;;;5022302;28;1976;-76
2023/10/23 06:59:36;;;;;;;;;;;21.10;66.10;;;;;;5003420;28;1616;-75
2023/10/23 07:02:01;;;;;;;;;;;21.10;66.20;;;;;;5024220;28;1109;-76
2023/10/23 07:04:27;;;;;;;;;;;21.10;66.20;;;;;;5021315;28;1225;-75
2023/10/23 07:06:53;;;;;;;;;;;21.10;66.30;;;;;;5022311;28;1294;-75
2023/10/23 07:09:18;;;;;;;;;;;21.10;66.30;;;;;;5011045;28;1865;-75
2023/10/23 07:11:46;;;;;;;;;;;21.10;66.60;;;;;;5023834;28;1295;-75
2023/10/23 07:14:13;;;;;;;;;;;21.10;67.00;;;;;;5011280;28;1328;-75
2023/10/23 07:16:38;;;;;;;;;;;21.10;66.90;;;;;;5023326;28;1914;-74
2023/10/23 07:19:04;;;;;;;;;;;21.10;66.80;;;;;;5026704;28;1230;-75
2023/10/23 07:21:30;;;;;;;;;;;21.20;67.00;;;;;;5029930;28;1090;-75
2023/10/23 07:23:56;;;;;;;;;;;21.20;67.00;;;;;;5023357;28;1281;-73
2023/10/23 07:26:21;;;;;;;;;;;21.20;67.20;;;;;;5021795;28;1391;-74
2023/10/23 07:28:47;;;;;;;;;;;21.20;67.20;;;;;;5026188;28;1758;-74
2023/10/23 07:31:13;;;;;;;;;;;21.20;67.30;;;;;;5025382;28;1191;-75
2023/10/23 07:33:38;;;;;;;;;;;21.20;67.30;;;;;;5028153;28;1050;-74
2023/10/23 07:36:07;;;;;;;;;;;21.20;67.40;;;;;;5023841;28;1902;-74
2023/10/23 07:38:33;;;;;;;;;;;21.20;67.40;;;;;;5029705;28;1203;-74
2023/10/23 07:40:59;;;;;;;;;;;21.20;67.40;;;;;;5027968;28;1337;-75
2023/10/23 07:43:28;;;;;;;;;;;21.20;67.50;;;;;;5026723;28;1513;-74
2023/10/23 07:45:53;;;;;;;;;;;21.20;67.60;;;;;;5029171;28;1345;-75
2023/10/23 07:48:20;;;;;;;;;;;21.20;67.70;;;;;;5027136;28;1261;-75
2023/10/23 07:50:45;;;;;;;;;;;21.20;67.80;;;;;;5022595;28;1325;-75
2023/10/23 07:53:11;;;;;;;;;;;21.20;67.70;;;;;;5026487;28;1190;-75
2023/10/23 07:55:37;;;;;;;;;;;21.20;67.70;;;;;;5027778;28;1959;-75
2023/10/23 07:58:03;;;;;;;;;;;21.30;67.80;;;;;;5029266;28;1287;-75
2023/10/23 08:00:28;;;;;;;;;;;21.20;67.70;;;;;;5026636;28;1070;-74
2023/10/23 08:02:54;;;;;;;;;;;21.20;67.70;;;;;;5021612;28;1297;-75
2023/10/23 08:05:19;;;;;;;;;;;21.30;67.90;;;;;;5024291;28;1319;-74
2023/10/23 08:10:13;;;;;;;;;;;21.30;67.80;;;;;;5023123;28;1789;-67
2023/10/23 08:12:39;;;;;;;;;;;21.30;67.80;;;;;;5012815;28;1455;-67
2023/10/23 08:15:05;;;;;;;;;;;21.30;67.80;;;;;;5028231;28;1918;-67
2023/10/23 08:17:30;;;;;;;;;;;21.30;67.80;;;;;;5029533;28;1232;-67
2023/10/23 08:19:56;;;;;;;;;;;21.30;67.80;;;;;;4990283;28;1432;-67
2023/10/23 08:22:22;;;;;;;;;;;21.30;67.90;;;;;;5002389;28;1036;-67
2023/10/23 08:24:47;;;;;;;;;;;21.30;67.70;;;;;;5003062;28;1464;-67
2023/10/23 08:27:13;;;;;;;;;;;21.30;67.80;;;;;;5000845;28;1314;-67
2023/10/23 08:29:38;;;;;;;;;;;21.30;67.80;;;;;;4999407;28;1477;-67
2023/10/23 08:32:04;;;;;;;;;;;21.30;67.80;;;;;;5001652;28;1125;-67
2023/10/23 08:34:29;;;;;;;;;;;21.30;67.90;;;;;;5004394;28;1306;-67
2023/10/23 08:36:55;;;;;;;;;;;21.30;67.90;;;;;;5000396;28;1906;-67
2023/10/23 08:39:20;;;;;;;;;;;21.30;67.90;;;;;;4998038;28;1360;-67
2023/10/23 08:41:48;;;;;;;;;;;21.30;67.90;;;;;;5000303;28;1330;-67
2023/10/23 08:44:14;;;;;;;;;;;21.30;67.90;;;;;;5000431;28;1442;-67
2023/10/23 08:46:40;;;;;;;;;;;21.30;68.10;;;;;;5000338;28;1344;-66
2023/10/23 08:49:05;;;;;;;;;;;21.30;68.10;;;;;;4999867;28;1446;-67
2023/10/23 08:51:31;;;;;;;;;;;21.30;68.10;;;;;;5001937;28;1923;-67
2023/10/23 08:54:06;;;;;;;;;;;21.30;68.20;;;;;;4984407;28;2228;-67
2023/10/23 08:56:33;;;;;;;;;;;21.30;68.30;;;;;;5001456;28;1930;-67
2023/10/23 08:58:59;;;;;;;;;;;21.30;68.30;;;;;;4985649;28;1617;-66
2023/10/23 09:01:24;;;;;;;;;;;21.30;68.30;;;;;;4987616;28;1489;-67
2023/10/23 09:03:50;;;;;;;;;;;21.30;68.50;;;;;;4987128;28;1437;-67
2023/10/23 09:06:16;;;;;;;;;;;21.30;68.50;;;;;;5000065;28;1469;-67
2023/10/23 09:08:41;;;;;;;;;;;21.30;69.20;;;;;;5003192;28;1316;-67
2023/10/23 09:11:07;;;;;;;;;;;21.30;68.60;;;;;;4991411;28;1739;-66
2023/10/23 09:13:34;;;;;;;;;;;21.20;68.50;;;;;;5002710;28;1379;-67
2023/10/23 09:15:59;;;;;;;;;;;21.30;68.70;;;;;;4986497;28;1992;-66
2023/10/23 09:18:25;;;;;;;;;;;21.20;68.60;;;;;;5000781;28;1410;-66
2023/10/23 09:20:50;;;;;;;;;;;21.20;68.60;;;;;;5000949;28;1186;-66
2023/10/23 09:23:16;;;;;;;;;;;21.20;68.70;;;;;;5000126;28;1463;-66
2023/10/23 09:25:41;;;;;;;;;;;21.20;68.80;;;;;;5003647;28;1438;-66
2023/10/23 09:28:10;;;;;;;;;;;21.20;68.80;;;;;;4984451;28;1779;-66
2023/10/23 09:30:35;;;;;;;;;;;21.20;68.80;;;;;;4986992;28;1146;-67
2023/10/23 09:33:01;;;;;;;;;;;21.20;68.80;;;;;;5000527;28;1461;-66
2023/10/23 09:35:27;;;;;;;;;;;21.20;68.90;;;;;;5001373;28;1940;-66
2023/10/23 09:37:53;;;;;;;;;;;21.20;68.90;;;;;;4984346;28;2364;-67
2023/10/23 09:40:18;;;;;;;;;;;21.20;69.00;;;;;;4986344;28;1339;-66
2023/10/23 09:42:44;;;;;;;;;;;21.20;69.30;;;;;;5000657;28;1239;-67
2023/10/23 09:45:10;;;;;;;;;;;21.20;69.30;;;;;;4987216;28;1738;-67
2023/10/23 09:47:35;;;;;;;;;;;21.20;69.10;;;;;;5001334;28;1174;-67
2023/10/23 09:50:03;;;;;;;;;;;21.20;69.20;;;;;;5000665;28;1229;-67
2023/10/23 09:52:28;;;;;;;;;;;21.20;69.20;;;;;;5001615;28;1251;-67
2023/10/23 09:54:57;;;;;;;;;;;21.20;69.30;;;;;;4984272;28;1350;-67
2023/10/23 09:57:22;;;;;;;;;;;21.20;69.40;;;;;;4986775;28;1973;-67
2023/10/23 09:59:48;;;;;;;;;;;21.20;69.40;;;;;;4991323;28;1411;-67
2023/10/23 10:02:17;;;;;;;;;;;21.20;69.40;;;;;;4989832;28;1580;-67
2023/10/23 10:04:56;;;;;;;;;;;21.10;69.40;;;;;;4986503;28;1320;-67
2023/10/23 10:07:23;;;;;;;;;;;21.20;69.60;;;;;;4985107;28;1325;-67
2023/10/23 10:09:48;;;;;;;;;;;21.10;69.50;;;;;;4987697;28;1649;-67
2023/10/23 10:12:14;;;;;;;;;;;21.10;69.60;;;;;;4991058;28;1666;-67
2023/10/23 10:14:39;;;;;;;;;;;21.10;69.80;;;;;;4991178;28;4472;-66
2023/10/23 10:17:05;;;;;;;;;;;21.10;69.70;;;;;;4983326;28;1969;-67
2023/10/23 10:19:30;;;;;;;;;;;21.10;69.80;;;;;;4983921;28;1331;-67
2023/10/23 10:21:56;;;;;;;;;;;21.10;69.80;;;;;;5000252;28;1391;-67
2023/10/23 10:24:21;;;;;;;;;;;21.10;69.80;;;;;;5001396;28;1226;-67
2023/10/23 10:26:47;;;;;;;;;;;21.10;69.90;;;;;;5002038;28;1468;-67
2023/10/23 10:29:13;;;;;;;;;;;21.10;69.90;;;;;;4996702;28;1563;-67
2023/10/23 10:31:57;;;;;;;;;;;21.10;70.10;;;;;;5002392;28;1414;-66
2023/10/23 10:34:24;;;;;;;;;;;21.10;70.10;;;;;;4998087;28;1525;-67
2023/10/23 10:36:50;;;;;;;;;;;21.10;70.10;;;;;;5001348;28;1875;-67
2023/10/23 10:39:17;;;;;;;;;;;21.00;70.10;;;;;;4990221;28;1449;-67
2023/10/23 10:41:43;;;;;;;;;;;21.10;70.30;;;;;;4999265;28;1449;-67
2023/10/23 10:44:10;;;;;;;;;;;21.10;70.30;;;;;;5001348;28;1287;-67
2023/10/23 10:46:36;;;;;;;;;;;21.10;70.20;;;;;;5001906;28;1545;-67
2023/10/23 10:49:04;;;;;;;;;;;21.10;70.30;;;;;;4999855;28;1306;-67
2023/10/23 10:51:30;;;;;;;;;;;21.10;70.30;;;;;;4985033;28;1253;-67
2023/10/23 10:54:03;;;;;;;;;;;21.10;70.30;;;;;;4999406;28;1387;-67
2023/10/23 10:56:28;;;;;;;;;;;21.10;70.30;;;;;;4983552;28;1910;-67
2023/10/23 10:58:54;;;;;;;;;;;21.10;70.30;;;;;;4984411;28;1499;-67
2023/10/23 11:01:23;;;;;;;;;;;21.10;70.30;;;;;;4984111;28;1331;-67
2023/10/23 11:03:48;;;;;;;;;;;21.00;70.30;;;;;;4985717;28;1968;-67
2023/10/23 11:06:14;;;;;;;;;;;21.00;70.30;;;;;;4998954;28;1441;-67
2023/10/23 11:08:40;;;;;;;;;;;21.10;70.40;;;;;;4978550;28;1517;-67
2023/10/23 11:11:05;;;;;;;;;;;21.00;70.40;;;;;;4996041;28;1540;-67
2023/10/23 11:13:31;;;;;;;;;;;21.10;70.40;;;;;;4983781;28;1256;-67
2023/10/23 11:15:57;;;;;;;;;;;21.00;70.40;;;;;;4997630;28;1906;-67
2023/10/23 11:18:22;;;;;;;;;;;21.10;70.50;;;;;;4984263;28;1404;-67
2023/10/23 11:20:48;;;;;;;;;;;21.10;70.50;;;;;;5001844;28;1242;-67
2023/10/23 11:23:15;;;;;;;;;;;21.00;70.40;;;;;;4997903;28;1451;-67
2023/10/23 11:25:41;;;;;;;;;;;21.10;70.50;;;;;;4997686;28;1433;-67
2023/10/23 11:28:06;;;;;;;;;;;21.00;70.50;;;;;;4998762;28;1601;-67
2023/10/23 11:30:32;;;;;;;;;;;21.10;70.50;;;;;;4998084;28;1221;-67
2023/10/23 11:32:58;;;;;;;;;;;21.10;70.50;;;;;;4988576;28;1479;-67
2023/10/23 11:35:30;;;;;;;;;;;21.00;70.40;;;;;;4987382;28;1902;-67
2023/10/23 11:37:56;;;;;;;;;;;21.10;70.50;;;;;;4981950;28;1493;-67
2023/10/23 11:40:21;;;;;;;;;;;21.10;70.50;;;;;;4999460;28;1614;-67
2023/10/23 11:42:48;;;;;;;;;;;21.10;70.50;;;;;;4988364;28;1324;-68
2023/10/23 11:45:14;;;;;;;;;;;21.10;70.50;;;;;;5000607;28;1712;-68
2023/10/23 11:47:40;;;;;;;;;;;21.00;70.50;;;;;;4998806;28;1348;-67
2023/10/23 11:50:12;;;;;;;;;;;21.10;70.50;;;;;;4982580;28;1369;-67
2023/10/23 11:52:44;;;;;;;;;;;21.00;70.40;;;;;;4998920;28;1469;-67
2023/10/23 11:55:10;;;;;;;;;;;21.10;70.50;;;;;;4999784;28;1955;-67
2023/10/23 11:57:37;;;;;;;;;;;21.10;70.50;;;;;;4997264;28;1316;-66
2023/10/23 12:00:07;;;;;;;;;;;21.10;70.50;;;;;;4985728;28;1572;-67
2023/10/23 12:02:32;;;;;;;;;;;21.10;70.50;;;;;;4998990;28;2187;-67
2023/10/23 12:04:58;;;;;;;;;;;21.10;71.60;;;;;;4999128;28;1340;-67
2023/10/23 12:07:23;;;;;;;;;;;21.10;69.90;;;;;;4997753;28;1481;-67
2023/10/23 12:09:48;;;;;;;;;;;21.00;66.90;;;;;;5000706;28;1455;-67
2023/10/23 12:12:14;;;;;;;;;;;21.00;66.80;;;;;;4986695;28;1424;-67
2023/10/23 12:14:39;;;;;;;;;;;20.90;66.40;;;;;;5003019;28;1401;-67
2023/10/23 12:17:05;;;;;;;;;;;20.80;66.10;;;;;;5000999;28;1914;-67
2023/10/23 12:19:30;;;;;;;;;;;20.80;65.90;;;;;;5006078;28;1327;-67
2023/10/23 12:21:56;;;;;;;;;;;20.80;65.70;;;;;;5004891;28;1384;-67
2023/10/23 12:24:21;;;;;;;;;;;20.70;65.80;;;;;;4989500;28;1490;-67
2023/10/23 12:26:47;;;;;;;;;;;20.70;66.00;;;;;;5004877;28;1250;-67
2023/10/23 12:29:13;;;;;;;;;;;20.70;66.10;;;;;;5005455;28;1541;-67
2023/10/23 12:31:39;;;;;;;;;;;20.70;66.20;;;;;;5002763;28;1385;-67
2023/10/23 12:34:04;;;;;;;;;;;20.70;66.20;;;;;;5002035;28;1950;-67
2023/10/23 12:36:30;;;;;;;;;;;20.60;65.60;;;;;;4999369;28;1910;-67
2023/10/23 12:38:55;;;;;;;;;;;20.60;65.60;;;;;;4987437;28;1386;-66
2023/10/23 12:41:21;;;;;;;;;;;20.60;65.60;;;;;;5001089;28;1643;-67
2023/10/23 12:43:47;;;;;;;;;;;20.60;65.80;;;;;;5002152;28;1592;-67
2023/10/23 12:46:13;;;;;;;;;;;20.60;65.90;;;;;;5004077;28;1401;-67
2023/10/23 12:48:41;;;;;;;;;;;20.60;65.80;;;;;;5003851;28;1400;-66
2023/10/23 12:51:06;;;;;;;;;;;20.60;65.70;;;;;;4998263;28;1495;-67
2023/10/23 12:53:33;;;;;;;;;;;20.50;65.20;;;;;;5002242;28;1270;-67
2023/10/23 12:55:58;;;;;;;;;;;20.50;65.40;;;;;;5000604;28;1910;-67
2023/10/23 12:58:24;;;;;;;;;;;20.50;65.80;;;;;;4992450;28;1510;-67
2023/10/23 13:00:50;;;;;;;;;;;20.60;65.40;;;;;;5002277;28;1404;-67
2023/10/23 13:03:15;;;;;;;;;;;20.50;65.50;;;;;;4984035;28;1336;-66
2023/10/23 13:05:41;;;;;;;;;;;20.50;65.80;;;;;;4999575;28;1277;-67
2023/10/23 13:08:06;;;;;;;;;;;20.50;65.80;;;;;;4999633;28;1400;-67
2023/10/23 13:10:32;;;;;;;;;;;20.50;65.60;;;;;;4999491;28;1512;-67
2023/10/23 13:12:57;;;;;;;;;;;20.50;65.80;;;;;;5002355;28;1390;-67
2023/10/23 13:15:23;;;;;;;;;;;20.50;65.80;;;;;;5003461;28;1902;-67
2023/10/23 13:17:49;;;;;;;;;;;20.50;66.30;;;;;;5000484;28;1548;-68
2023/10/23 13:20:14;;;;;;;;;;;20.50;66.80;;;;;;5000702;28;1781;-68
2023/10/23 13:22:40;;;;;;;;;;;20.50;66.60;;;;;;5003327;28;1326;-68
2023/10/23 13:25:05;;;;;;;;;;;20.50;67.00;;;;;;5003312;28;2088;-68
2023/10/23 13:27:32;;;;;;;;;;;20.60;66.90;;;;;;5000815;28;1430;-68
2023/10/23 13:29:57;;;;;;;;;;;20.60;67.00;;;;;;5000877;28;1244;-68
2023/10/23 13:32:23;;;;;;;;;;;20.60;66.80;;;;;;5003489;28;1408;-68
2023/10/23 13:34:51;;;;;;;;;;;20.60;66.10;;;;;;4999031;28;1125;-68
2023/10/23 13:37:17;;;;;;;;;;;20.50;66.00;;;;;;5003309;28;1977;-67
2023/10/23 13:39:42;;;;;;;;;;;20.50;65.60;;;;;;4994660;28;1563;-67
2023/10/23 13:42:08;;;;;;;;;;;20.50;65.80;;;;;;4999150;28;1163;-67
2023/10/23 13:44:34;;;;;;;;;;;20.50;65.10;;;;;;4999606;28;1050;-68
2023/10/23 13:46:59;;;;;;;;;;;20.50;65.10;;;;;;5001193;28;1533;-67
2023/10/23 13:49:25;;;;;;;;;;;20.50;66.00;;;;;;5002203;28;1609;-67
2023/10/23 13:51:50;;;;;;;;;;;20.50;65.00;;;;;;5000799;28;907;-67
2023/10/23 13:54:16;;;;;;;;;;;20.50;64.60;;;;;;4999447;28;1352;-68
2023/10/23 13:56:41;;;;;;;;;;;20.50;64.70;;;;;;4997070;28;1976;-70
2023/10/23 13:59:07;;;;;;;;;;;20.50;64.70;;;;;;5002706;28;1515;-68
2023/10/23 14:01:32;;;;;;;;;;;20.50;65.10;;;;;;5002227;28;1270;-68
2023/10/23 14:03:58;;;;;;;;;;;20.40;64.80;;;;;;4999418;28;1939;-68
2023/10/23 14:06:24;;;;;;;;;;;20.40;65.10;;;;;;4998447;28;1298;-68
2023/10/23 14:08:54;;;;;;;;;;;20.40;65.30;;;;;;4999939;28;1451;-68
2023/10/23 14:11:19;;;;;;;;;;;20.40;65.20;;;;;;5046926;22;2180;-70
2023/10/23 14:13:45;;;;;;;;;;;20.40;65.00;;;;;;5048566;28;1356;-69
2023/10/23 14:16:12;;;;;;;;;;;20.40;65.10;;;;;;5028341;28;1990;-69
2023/10/23 14:18:37;;;;;;;;;;;20.40;65.30;;;;;;5033148;28;1306;-70
2023/10/23 14:21:04;;;;;;;;;;;20.40;65.20;;;;;;5014375;28;1409;-68
2023/10/23 14:23:30;;;;;;;;;;;20.40;65.40;;;;;;5029403;28;1409;-69
2023/10/23 14:25:55;;;;;;;;;;;20.40;65.70;;;;;;5027242;28;1204;-69